Time;durP1;ratioP1;P1;durP2;ratioP2;P2;SDS_P1;SDS_P2;PMS_P1;PMS_P2;Temp;Humidity;BMP_temperature;BMP_pressure;BME280_temperature;BME280_humidity;BME280_pressure;Samples;Min_cycle;Max_cycle;Signal;HPM_P1;HPM_P2
2021/11/12 00:13:43;;;;;;;40.38;21.90;;;2.00;99.90;;;;;;5042143;28;20249;-53
2021/11/12 00:16:09;;;;;;;39.63;22.10;;;2.00;99.90;;;;;;5050391;28;20182;-48
2021/11/12 00:18:36;;;;;;;43.50;21.90;;;1.90;99.90;;;;;;5048154;28;20272;-51
2021/11/12 00:21:03;;;;;;;43.88;21.38;;;2.00;99.90;;;;;;5035451;28;20202;-49
2021/11/12 00:23:31;;;;;;;47.80;24.13;;;2.00;99.90;;;;;;5038769;28;20182;-48
2021/11/12 00:25:56;;;;;;;45.50;22.17;;;2.00;99.90;;;;;;5048659;28;20189;-51
2021/11/12 00:28:26;;;;;;;42.90;21.90;;;2.00;99.90;;;;;;5035484;28;20292;-52
2021/11/12 00:38:42;;;;;;;39.00;21.42;;;2.10;99.90;;;;;;5050222;28;20194;-54
2021/11/12 00:43:55;;;;;;;42.65;22.90;;;2.10;99.90;;;;;;5051350;28;20181;-52
2021/11/12 00:46:40;;;;;;;37.03;23.33;;;2.10;99.90;;;;;;5051205;28;20182;-53
2021/11/12 00:49:10;;;;;;;39.45;22.13;;;2.10;99.90;;;;;;5043782;28;20171;-53
2021/11/12 00:56:30;;;;;;;40.83;22.67;;;2.20;99.90;;;;;;5042650;28;20193;-51
2021/11/12 00:58:59;;;;;;;44.03;24.08;;;2.30;99.90;;;;;;5039505;28;20191;-50
2021/11/12 01:01:27;;;;;;;43.53;23.15;;;2.30;99.90;;;;;;5051655;28;20212;-51
2021/11/12 01:03:54;;;;;;;48.22;24.65;;;2.40;99.90;;;;;;5036729;28;20210;-50
2021/11/12 01:06:20;;;;;;;41.00;22.20;;;2.40;99.90;;;;;;5036495;28;20190;-53
2021/11/12 01:08:46;;;;;;;41.63;21.83;;;2.40;99.90;;;;;;5032544;28;20529;-55
2021/11/12 01:11:13;;;;;;;45.53;23.07;;;2.40;99.90;;;;;;5040770;28;20236;-51
2021/11/12 01:13:40;;;;;;;43.08;23.63;;;2.40;99.90;;;;;;5046325;28;20183;-52
2021/11/12 01:16:06;;;;;;;47.38;23.45;;;2.50;99.90;;;;;;5043788;28;20206;-51
2021/11/12 01:18:35;;;;;;;45.15;23.88;;;2.50;99.90;;;;;;5048292;28;20197;-53
2021/11/12 01:21:02;;;;;;;44.30;22.50;;;2.50;99.90;;;;;;5057168;28;20220;-53
2021/11/12 01:23:27;;;;;;;44.50;23.10;;;2.50;99.90;;;;;;5050754;28;20585;-49
2021/11/12 01:25:53;;;;;;;40.57;22.23;;;2.50;99.90;;;;;;5038773;28;20190;-51
2021/11/12 01:28:19;;;;;;;41.08;21.38;;;2.60;99.90;;;;;;5039778;28;20988;-50
2021/11/12 01:30:45;;;;;;;40.00;22.47;;;2.70;99.90;;;;;;5048805;28;20182;-52
2021/11/12 01:33:10;;;;;;;47.50;22.83;;;2.70;99.90;;;;;;5046730;28;20273;-53
2021/11/12 01:35:37;;;;;;;44.63;22.07;;;2.80;99.90;;;;;;5051540;28;20190;-53
2021/11/12 01:38:03;;;;;;;40.58;21.63;;;2.80;99.90;;;;;;5041251;28;20181;-51
2021/11/12 01:40:29;;;;;;;42.45;23.15;;;2.80;99.90;;;;;;5050082;28;20190;-50
2021/11/12 01:43:07;;;;;;;44.05;23.17;;;2.90;99.90;;;;;;5046390;28;20266;-50
2021/11/12 01:45:47;;;;;;;47.10;23.13;;;2.90;99.90;;;;;;5041559;28;20273;-50
2021/11/12 01:48:30;;;;;;;44.88;23.17;;;3.00;99.90;;;;;;5043901;28;20183;-53
2021/11/12 01:53:28;;;;;;;43.42;23.17;;;3.00;99.90;;;;;;5047173;28;20194;-51
2021/11/12 01:59:04;;;;;;;40.45;23.77;;;3.10;99.90;;;;;;5044645;28;20240;-50
2021/11/12 02:01:35;;;;;;;41.03;21.70;;;3.10;99.90;;;;;;5033691;28;20221;-52
2021/11/12 02:04:02;;;;;;;40.38;22.23;;;3.20;99.90;;;;;;5040921;28;20700;-48
2021/11/12 02:06:27;;;;;;;40.50;22.02;;;3.20;99.90;;;;;;5047332;28;20231;-49
2021/11/12 02:08:53;;;;;;;42.23;22.80;;;3.20;99.90;;;;;;5033562;28;20190;-50
2021/11/12 02:11:20;;;;;;;42.65;23.83;;;3.10;99.90;;;;;;5047309;28;20190;-52
2021/11/12 02:13:48;;;;;;;40.92;22.65;;;3.10;99.90;;;;;;5035361;28;20736;-51
2021/11/12 02:16:20;;;;;;;39.78;21.50;;;3.20;99.90;;;;;;5031117;28;20171;-49
2021/11/12 02:18:47;;;;;;;40.40;22.75;;;3.20;99.90;;;;;;5035974;28;20183;-52
2021/11/12 02:21:41;;;;;;;47.97;24.25;;;3.20;99.90;;;;;;5059955;28;21009;-52
2021/11/12 02:24:10;;;;;;;40.78;22.55;;;3.30;99.90;;;;;;5041310;28;20210;-53
2021/11/12 02:26:43;;;;;;;43.92;23.10;;;3.40;99.90;;;;;;5050264;28;20606;-52
2021/11/12 02:29:10;;;;;;;47.30;22.88;;;3.40;99.90;;;;;;5038252;28;20231;-49
2021/11/12 02:31:38;;;;;;;41.55;22.60;;;3.40;99.90;;;;;;5046108;28;20281;-52
2021/11/12 02:34:08;;;;;;;45.17;22.30;;;3.40;99.90;;;;;;5039281;28;20183;-51
2021/11/12 02:36:34;;;;;;;41.22;23.02;;;3.40;99.90;;;;;;5042437;28;20283;-47
2021/11/12 02:39:01;;;;;;;42.47;22.73;;;3.50;99.90;;;;;;5044614;28;20186;-50
2021/11/12 02:41:27;;;;;;;44.33;22.95;;;3.50;99.90;;;;;;5038409;28;20209;-52
2021/11/12 02:43:53;;;;;;;41.20;21.70;;;3.60;99.90;;;;;;5040141;28;20507;-48
2021/11/12 02:46:22;;;;;;;40.30;22.30;;;3.60;99.90;;;;;;5039178;28;20213;-50
2021/11/12 02:48:49;;;;;;;46.38;22.27;;;3.80;99.90;;;;;;5043125;28;20217;-53
2021/11/12 02:51:20;;;;;;;40.20;22.23;;;3.80;99.90;;;;;;5045826;28;20237;-49
2021/11/12 02:53:48;;;;;;;39.25;21.10;;;3.80;99.90;;;;;;5045320;28;20999;-49
2021/11/12 02:56:23;;;;;;;42.70;22.35;;;3.80;99.90;;;;;;5037763;28;20197;-51
2021/11/12 02:59:01;;;;;;;49.85;22.27;;;3.90;99.90;;;;;;5046438;28;20535;-50
2021/11/12 03:01:29;;;;;;;44.78;23.42;;;3.90;99.90;;;;;;5045788;28;20297;-51
2021/11/12 03:03:55;;;;;;;42.35;22.15;;;3.90;99.90;;;;;;5037037;28;20568;-51
2021/11/12 03:06:21;;;;;;;39.53;21.80;;;3.90;99.90;;;;;;5049329;28;20244;-52
2021/11/12 03:08:49;;;;;;;43.47;21.83;;;3.90;99.90;;;;;;5048475;28;20437;-54
2021/11/12 03:11:15;;;;;;;42.47;22.40;;;3.90;99.90;;;;;;5032150;28;20183;-50
2021/11/12 03:13:41;;;;;;;39.87;21.50;;;4.00;99.90;;;;;;5042895;28;20190;-50
2021/11/12 03:16:07;;;;;;;43.30;22.37;;;4.00;99.90;;;;;;5035718;28;20508;-50
2021/11/12 03:18:34;;;;;;;41.80;20.20;;;4.00;99.90;;;;;;5026524;28;20195;-52
2021/11/12 03:21:02;;;;;;;46.08;23.08;;;4.00;99.90;;;;;;5031655;28;20229;-53
2021/11/12 03:23:33;;;;;;;35.58;20.13;;;4.00;99.90;;;;;;5028130;28;20265;-49
2021/11/12 03:28:50;;;;;;;37.37;21.30;;;3.90;99.90;;;;;;5036150;28;20182;-52
2021/11/12 04:00:56;;;;;;;37.45;21.08;;;3.80;99.90;;;;;;5044555;28;20217;-52
2021/11/12 04:41:24;;;;;;;36.78;20.38;;;3.70;99.90;;;;;;5038853;28;20233;-51
2021/11/12 05:56:39;;;;;;;30.08;18.13;;;4.40;99.90;;;;;;5046451;28;20200;-53
2021/11/12 05:59:05;;;;;;;30.10;17.73;;;4.40;99.90;;;;;;5050781;28;20209;-52
2021/11/12 06:01:31;;;;;;;30.10;17.10;;;4.50;99.90;;;;;;5046721;28;20202;-49
2021/11/12 06:03:57;;;;;;;31.55;17.30;;;4.50;99.90;;;;;;5040501;28;20195;-52
2021/11/12 06:06:23;;;;;;;24.63;14.32;;;4.60;99.90;;;;;;5037191;28;20247;-53
2021/11/12 06:08:49;;;;;;;22.30;14.97;;;4.60;99.90;;;;;;5050813;28;20174;-49
2021/11/12 06:11:14;;;;;;;24.03;14.80;;;4.50;99.90;;;;;;5049831;28;20536;-50
2021/11/12 06:13:40;;;;;;;22.40;13.70;;;4.60;99.90;;;;;;5051046;28;20167;-49
2021/11/12 06:16:06;;;;;;;23.87;13.57;;;4.50;99.90;;;;;;5046688;28;20665;-51
2021/11/12 06:18:31;;;;;;;22.97;14.07;;;4.50;99.90;;;;;;5046208;28;20214;-50
2021/11/12 06:20:57;;;;;;;21.53;14.17;;;4.50;99.90;;;;;;5049532;28;20230;-50
2021/11/12 06:23:22;;;;;;;23.03;13.10;;;4.50;99.90;;;;;;5050984;28;20158;-53
2021/11/12 06:25:48;;;;;;;21.70;13.43;;;4.50;99.90;;;;;;5049893;28;20273;-52
2021/11/12 06:28:14;;;;;;;23.90;14.70;;;4.50;99.90;;;;;;5050144;28;20194;-49
2021/11/12 06:30:39;;;;;;;25.30;14.27;;;4.50;99.90;;;;;;5049154;28;20689;-51
2021/11/12 06:33:05;;;;;;;26.23;14.17;;;4.50;99.90;;;;;;5048508;28;20179;-50
2021/11/12 06:35:31;;;;;;;21.70;13.50;;;4.50;99.90;;;;;;5048822;28;20324;-50
2021/11/12 06:37:56;;;;;;;23.40;12.77;;;4.50;99.90;;;;;;5049275;28;20182;-49
2021/11/12 06:40:22;;;;;;;26.33;13.90;;;4.50;99.90;;;;;;5048552;28;20506;-54
2021/11/12 06:51:00;;;;;;;23.48;14.43;;;4.60;99.90;;;;;;5048354;28;20240;-52
2021/11/12 06:53:25;;;;;;;19.63;13.57;;;4.60;99.90;;;;;;5045171;28;20186;-53
2021/11/12 06:55:53;;;;;;;23.80;14.27;;;4.60;99.90;;;;;;5048109;28;20261;-51
2021/11/12 06:58:18;;;;;;;21.70;12.82;;;4.60;99.90;;;;;;5047204;28;20201;-49
2021/11/12 07:00:46;;;;;;;23.60;15.00;;;4.50;99.90;;;;;;5046191;28;20228;-53
2021/11/12 07:03:12;;;;;;;22.75;13.40;;;4.60;99.90;;;;;;5048313;28;20598;-53
2021/11/12 07:05:37;;;;;;;26.23;13.53;;;4.60;99.90;;;;;;5049108;28;20285;-52
2021/11/12 07:08:03;;;;;;;22.87;14.53;;;4.70;99.90;;;;;;5035101;28;20187;-54
2021/11/12 07:10:28;;;;;;;24.30;12.87;;;4.70;99.90;;;;;;5029993;28;20294;-57
2021/11/12 07:12:54;;;;;;;22.07;13.37;;;4.70;99.90;;;;;;5029533;28;20222;-51
2021/11/12 07:15:20;;;;;;;22.17;14.37;;;4.70;99.90;;;;;;5036573;28;20182;-54
2021/11/12 07:17:48;;;;;;;25.43;14.23;;;4.70;99.90;;;;;;5047877;28;20162;-53
2021/11/12 07:20:14;;;;;;;21.15;14.18;;;4.70;99.90;;;;;;5037101;28;20429;-55
2021/11/12 07:22:40;;;;;;;22.33;14.00;;;4.80;99.90;;;;;;5028982;28;20236;-49
2021/11/12 07:25:08;;;;;;;22.27;13.13;;;5.00;99.90;;;;;;5028344;28;20430;-54
2021/11/12 07:27:34;;;;;;;22.60;14.48;;;5.00;99.90;;;;;;5055437;28;20436;-58
2021/11/12 07:29:59;;;;;;;19.77;13.93;;;5.00;99.90;;;;;;5042812;28;20189;-52
2021/11/12 07:32:25;;;;;;;20.77;13.00;;;5.00;99.90;;;;;;5044133;28;20183;-50
2021/11/12 07:34:52;;;;;;;23.13;13.80;;;5.00;99.90;;;;;;5046367;28;20193;-53
2021/11/12 07:37:18;;;;;;;22.85;14.13;;;5.10;99.90;;;;;;5044933;28;20277;-54
2021/11/12 07:42:22;;;;;;;23.10;14.67;;;5.00;99.90;;;;;;5049629;28;20202;-50
2021/11/12 07:47:19;;;;;;;21.67;13.88;;;5.10;99.90;;;;;;5059872;28;20177;-54
2021/11/12 07:49:56;;;;;;;19.05;12.88;;;5.10;99.90;;;;;;5055879;28;20269;-50
2021/11/12 07:52:25;;;;;;;20.63;13.13;;;5.20;99.90;;;;;;5047260;28;20299;-53
2021/11/12 07:54:51;;;;;;;20.27;14.02;;;5.40;99.90;;;;;;5047776;28;20252;-54
2021/11/12 07:57:17;;;;;;;21.30;13.17;;;5.60;99.90;;;;;;5036155;28;20198;-58
2021/11/12 07:59:43;;;;;;;18.70;11.93;;;5.70;99.90;;;;;;5038546;28;20200;-52
2021/11/12 08:02:08;;;;;;;17.73;11.98;;;5.70;99.90;;;;;;5047090;28;20202;-52
2021/11/12 08:04:36;;;;;;;17.33;12.77;;;5.70;99.90;;;;;;5059433;28;20655;-53
2021/11/12 08:07:02;;;;;;;18.15;12.00;;;5.80;99.90;;;;;;5048568;28;20265;-51
2021/11/12 08:09:41;;;;;;;20.90;14.20;;;5.80;99.90;;;;;;5050399;28;20285;-52
2021/11/12 08:12:26;;;;;;;20.17;14.07;;;6.00;99.90;;;;;;5044062;28;20224;-53
2021/11/12 08:19:55;;;;;;;18.88;13.60;;;6.80;99.90;;;;;;5046763;28;20412;-50
2021/11/12 08:24:55;;;;;;;20.40;13.67;;;7.50;99.90;;;;;;5038728;28;21348;-54
2021/11/12 08:42:33;;;;;;;15.27;11.57;;;9.80;99.90;;;;;;5050078;28;20507;-52
2021/11/12 08:45:05;;;;;;;14.87;11.13;;;10.30;99.90;;;;;;5052600;28;20401;-52
2021/11/12 08:47:35;;;;;;;16.47;11.80;;;10.30;99.90;;;;;;5051122;28;20491;-52
2021/11/12 08:50:02;;;;;;;17.47;12.97;;;10.50;99.90;;;;;;5036841;28;20812;-55
2021/11/12 08:52:28;;;;;;;14.50;11.83;;;10.80;99.60;;;;;;5041148;28;20580;-53
2021/11/12 08:54:54;;;;;;;13.90;10.70;;;11.30;98.20;;;;;;5031168;28;20520;-52
2021/11/12 08:57:20;;;;;;;12.20;10.77;;;11.60;96.90;;;;;;5041689;28;20268;-51
2021/11/12 08:59:49;;;;;;;13.60;11.23;;;11.80;96.00;;;;;;5044988;28;20466;-48
2021/11/12 09:02:19;;;;;;;15.03;11.87;;;12.10;94.80;;;;;;5051108;28;20203;-52
2021/11/12 09:04:47;;;;;;;12.43;11.13;;;12.40;93.80;;;;;;5042743;28;21064;-50
2021/11/12 09:07:14;;;;;;;11.97;10.70;;;12.40;93.20;;;;;;5031761;28;20767;-53
2021/11/12 09:09:40;;;;;;;13.37;11.17;;;12.50;92.70;;;;;;5048469;28;20906;-50
2021/11/12 09:12:09;;;;;;;12.63;10.93;;;12.50;92.50;;;;;;5037473;28;20442;-53
2021/11/12 09:14:38;;;;;;;12.40;10.90;;;12.70;91.50;;;;;;5037557;28;21248;-53
2021/11/12 09:17:05;;;;;;;12.17;10.97;;;12.90;91.50;;;;;;5050919;28;20527;-52
2021/11/12 09:19:33;;;;;;;11.80;10.60;;;13.40;90.00;;;;;;5050400;28;20428;-49
2021/11/12 09:21:59;;;;;;;12.10;10.67;;;13.50;89.00;;;;;;5050342;28;20553;-52
2021/11/12 09:24:24;;;;;;;13.10;11.80;;;13.80;87.60;;;;;;5050276;28;20519;-53
2021/11/12 09:26:50;;;;;;;11.73;10.60;;;13.70;86.10;;;;;;5048622;28;20547;-53
2021/11/12 09:29:16;;;;;;;11.37;10.10;;;13.60;86.60;;;;;;5031804;28;20202;-52
2021/11/12 09:31:42;;;;;;;11.23;10.13;;;13.90;85.00;;;;;;5030477;28;20175;-54
2021/11/12 09:34:10;;;;;;;11.93;10.73;;;14.10;83.40;;;;;;5042695;28;20178;-55
2021/11/12 09:36:36;;;;;;;12.03;10.83;;;13.80;81.60;;;;;;5048786;28;20496;-53
2021/11/12 09:39:04;;;;;;;11.93;10.50;;;13.90;82.90;;;;;;5045814;28;20820;-54
2021/11/12 09:41:30;;;;;;;11.53;10.50;;;14.00;82.10;;;;;;5038664;28;20472;-49
2021/11/12 09:43:56;;;;;;;12.10;10.90;;;14.10;81.30;;;;;;5052456;28;20453;-52
2021/11/12 09:46:22;;;;;;;11.37;10.37;;;14.10;82.70;;;;;;5046131;28;20437;-52
2021/11/12 09:48:47;;;;;;;11.17;10.00;;;14.70;80.70;;;;;;5046814;28;20472;-49
2021/11/12 09:51:14;;;;;;;11.00;9.90;;;15.20;79.10;;;;;;5050767;28;20234;-54
2021/11/12 09:53:41;;;;;;;11.97;10.43;;;15.30;74.40;;;;;;5047942;28;20273;-51
2021/11/12 09:56:08;;;;;;;11.50;10.50;;;15.40;75.40;;;;;;5048847;28;20441;-54
2021/11/12 09:58:38;;;;;;;12.60;11.30;;;15.30;72.40;;;;;;5049856;28;20456;-54
2021/11/12 10:01:05;;;;;;;11.80;10.70;;;15.40;73.90;;;;;;5040971;28;20465;-52
2021/11/12 10:03:42;;;;;;;10.63;9.63;;;14.90;73.90;;;;;;5052842;28;20556;-52
2021/11/12 10:06:24;;;;;;;11.57;10.47;;;15.20;74.90;;;;;;5041487;28;20457;-51
2021/11/12 10:08:53;;;;;;;10.63;9.63;;;15.10;71.60;;;;;;5051264;28;20508;-49
2021/11/12 10:11:29;;;;;;;10.80;9.90;;;15.00;72.10;;;;;;5057322;28;20943;-56
2021/11/12 10:14:02;;;;;;;10.60;9.60;;;15.20;71.90;;;;;;5045154;28;20419;-52
2021/11/12 10:16:36;;;;;;;10.57;9.67;;;15.50;70.20;;;;;;5050296;28;21109;-53
2021/11/12 10:19:19;;;;;;;10.37;9.37;;;15.30;73.10;;;;;;5050318;28;20435;-49
2021/11/12 10:22:01;;;;;;;10.40;9.40;;;15.50;70.70;;;;;;5062040;28;20462;-55
2021/11/12 10:24:30;;;;;;;10.27;9.37;;;16.00;68.90;;;;;;5045054;28;20925;-50
2021/11/12 10:27:00;;;;;;;10.80;9.90;;;16.20;68.00;;;;;;5052306;28;20433;-50
2021/11/12 10:29:31;;;;;;;9.67;8.77;;;16.30;64.50;;;;;;5052599;28;20420;-55
2021/11/12 10:32:03;;;;;;;10.80;9.67;;;16.30;65.50;;;;;;5060700;28;20432;-51
2021/11/12 10:34:31;;;;;;;10.07;9.17;;;16.20;63.70;;;;;;5047788;28;20435;-54
2021/11/12 10:37:25;;;;;;;9.73;8.93;;;16.40;62.80;;;;;;5055924;28;20416;-52
2021/11/12 10:39:56;;;;;;;9.60;8.73;;;16.70;63.50;;;;;;5032747;28;21007;-52
2021/11/12 10:42:25;;;;;;;9.53;8.73;;;16.60;62.30;;;;;;5047273;28;20471;-53
2021/11/12 10:44:57;;;;;;;9.73;8.73;;;17.00;63.10;;;;;;5050039;28;20416;-52
2021/11/12 10:47:25;;;;;;;10.37;9.37;;;16.90;59.50;;;;;;5047039;28;20409;-53
2021/11/12 10:49:56;;;;;;;9.90;9.00;;;16.70;60.70;;;;;;5044895;28;20863;-50
2021/11/12 10:52:23;;;;;;;10.13;9.27;;;16.90;60.60;;;;;;5049556;28;20472;-51
2021/11/12 10:55:08;;;;;;;10.37;9.47;;;16.70;59.90;;;;;;5046403;28;20780;-55
2021/11/12 10:57:41;;;;;;;9.93;8.93;;;16.90;59.70;;;;;;5060237;28;20933;-48
2021/11/12 11:00:20;;;;;;;9.93;8.97;;;17.00;58.90;;;;;;5051383;28;20479;-54
2021/11/12 11:03:06;;;;;;;11.03;9.67;;;17.20;58.80;;;;;;5043905;28;20464;-54
2021/11/12 11:05:40;;;;;;;10.43;9.53;;;17.10;59.00;;;;;;5046398;28;20444;-53
2021/11/12 11:08:07;;;;;;;10.40;9.40;;;17.10;58.50;;;;;;5046747;28;20471;-53
2021/11/12 11:10:35;;;;;;;11.37;10.40;;;17.10;58.50;;;;;;5044749;28;20462;-51
2021/11/12 11:13:15;;;;;;;9.97;9.07;;;15.80;58.30;;;;;;5045685;28;20472;-53
2021/11/12 11:15:58;;;;;;;10.30;9.37;;;15.80;60.70;;;;;;5047321;28;21001;-52
2021/11/12 11:18:36;;;;;;;10.87;9.93;;;16.20;60.50;;;;;;5040321;28;20519;-50
2021/11/12 11:23:57;;;;;;;10.43;9.63;;;15.80;60.70;;;;;;5050442;28;20437;-53
2021/11/12 11:26:24;;;;;;;10.43;9.37;;;16.00;60.00;;;;;;5053025;28;20929;-53
2021/11/12 11:28:54;;;;;;;11.30;10.30;;;15.50;60.90;;;;;;5041499;28;20465;-52
2021/11/12 11:31:20;;;;;;;10.43;9.43;;;15.80;61.80;;;;;;5053056;28;20827;-50
2021/11/12 11:33:49;;;;;;;10.77;9.80;;;15.60;62.20;;;;;;5046906;28;20474;-49
2021/11/12 11:36:16;;;;;;;11.03;10.00;;;15.70;61.50;;;;;;5063151;28;20474;-54
2021/11/12 11:38:43;;;;;;;12.17;11.17;;;15.70;62.60;;;;;;5044945;28;20510;-53
2021/11/12 11:41:11;;;;;;;11.07;9.97;;;15.70;62.20;;;;;;5048329;28;20540;-52
2021/11/12 11:43:38;;;;;;;11.80;10.70;;;16.00;61.40;;;;;;5056588;28;20825;-52
2021/11/12 11:46:08;;;;;;;11.60;10.37;;;16.10;61.30;;;;;;5047867;28;20415;-48
2021/11/12 11:48:39;;;;;;;10.93;9.93;;;16.40;60.20;;;;;;5047002;28;20930;-54
2021/11/12 11:51:07;;;;;;;10.10;9.10;;;16.50;59.70;;;;;;5038108;28;20462;-52
2021/11/12 11:53:45;;;;;;;10.53;9.43;;;16.40;59.50;;;;;;5025397;28;20471;-52
2021/11/12 11:56:12;;;;;;;11.37;10.37;;;16.50;59.60;;;;;;5031888;28;20460;-52
2021/11/12 11:58:41;;;;;;;10.60;9.57;;;16.20;59.00;;;;;;5027632;28;20518;-54
2021/11/12 12:01:11;;;;;;;10.80;9.70;;;16.30;59.70;;;;;;5027048;28;20530;-51
2021/11/12 12:03:37;;;;;;;10.93;9.93;;;16.30;59.90;;;;;;5032272;28;20425;-53
2021/11/12 12:06:22;;;;;;;11.60;10.50;;;16.20;59.60;;;;;;5045677;28;21136;-53
2021/11/12 12:08:51;;;;;;;11.90;10.80;;;16.10;59.90;;;;;;5048386;28;20630;-51
2021/11/12 12:11:23;;;;;;;13.13;11.67;;;15.80;60.90;;;;;;5048363;28;20446;-52
2021/11/12 12:14:19;;;;;;;13.63;12.23;;;15.70;61.50;;;;;;5045717;28;20447;-52
2021/11/12 12:17:12;;;;;;;11.80;10.70;;;15.60;61.50;;;;;;5045117;28;20420;-50
2021/11/12 12:36:59;;;;;;;13.67;12.37;;;15.40;62.90;;;;;;5046339;28;20451;-56
2021/11/12 13:20:27;;;;;;;13.80;12.23;;;13.30;70.80;;;;;;5049664;28;20420;-59
2021/11/12 13:23:05;;;;;;;13.57;11.90;;;12.90;73.70;;;;;;5050140;28;20452;-59
2021/11/12 13:25:43;;;;;;;17.13;13.23;;;13.00;74.00;;;;;;5050475;28;20412;-59
2021/11/12 13:28:11;;;;;;;14.03;12.47;;;12.80;74.10;;;;;;5049390;28;20420;-59
2021/11/12 13:30:42;;;;;;;16.53;13.73;;;12.60;74.20;;;;;;5047260;28;20502;-59
2021/11/12 13:33:25;;;;;;;15.60;12.97;;;12.60;75.40;;;;;;5036175;28;20459;-59
2021/11/12 13:35:50;;;;;;;13.83;12.37;;;12.50;75.50;;;;;;5043072;28;20429;-59
2021/11/12 13:38:16;;;;;;;14.27;12.87;;;12.50;76.20;;;;;;5038001;28;20970;-59
2021/11/12 13:40:43;;;;;;;15.07;12.50;;;12.60;76.20;;;;;;5030362;28;20789;-59
2021/11/12 13:43:09;;;;;;;15.20;12.30;;;12.60;76.40;;;;;;5031278;28;20590;-59
2021/11/12 13:45:34;;;;;;;14.60;13.03;;;12.70;76.60;;;;;;5030142;28;20425;-59
2021/11/12 13:48:10;;;;;;;14.87;13.23;;;12.70;75.90;;;;;;5046857;28;20248;-58
2021/11/12 13:50:50;;;;;;;15.73;13.20;;;12.50;76.50;;;;;;5049737;28;20380;-59
2021/11/12 13:53:15;;;;;;;16.67;13.67;;;12.50;77.20;;;;;;5052498;28;20440;-59
2021/11/12 13:55:42;;;;;;;17.37;13.27;;;12.10;76.80;;;;;;5045361;28;20984;-59
2021/11/12 13:58:07;;;;;;;16.57;13.60;;;11.80;79.30;;;;;;5046916;28;20538;-59
2021/11/12 14:00:36;;;;;;;16.27;14.57;;;11.80;79.80;;;;;;5038948;28;20429;-55
2021/11/12 14:03:07;;;;;;;19.93;14.53;;;11.80;79.90;;;;;;5043734;28;20206;-58
2021/11/12 14:05:34;;;;;;;17.23;14.40;;;11.60;80.60;;;;;;5048906;28;20436;-58
2021/11/12 14:08:07;;;;;;;17.67;14.00;;;11.50;82.20;;;;;;5040447;28;20423;-58
2021/11/12 14:10:39;;;;;;;18.23;14.77;;;11.40;83.30;;;;;;5039517;28;20769;-59
2021/11/12 14:13:06;;;;;;;16.47;13.90;;;11.20;84.10;;;;;;5036989;28;20512;-59
2021/11/12 14:15:40;;;;;;;17.63;14.30;;;11.10;85.50;;;;;;5044679;28;20441;-60
2021/11/12 14:18:56;;;;;;;16.00;13.07;;;11.10;85.00;;;;;;5045755;28;20440;-58
2021/11/12 14:24:10;;;;;;;19.70;16.23;;;10.80;86.80;;;;;;5048535;28;20429;-59
2021/11/12 14:29:18;;;;;;;20.03;15.83;;;10.40;90.00;;;;;;5030405;28;20509;-53
2021/11/12 14:34:36;;;;;;;21.20;15.33;;;10.30;91.20;;;;;;5047961;28;20428;-57
2021/11/12 14:37:16;;;;;;;20.87;15.37;;;10.00;91.30;;;;;;5034971;28;20401;-60
2021/11/12 14:40:02;;;;;;;21.57;16.50;;;9.90;93.30;;;;;;5034907;28;22141;-58
2021/11/12 14:42:51;;;;;;;20.87;15.13;;;9.80;93.60;;;;;;5030785;28;20565;-59
2021/11/12 14:45:24;;;;;;;20.40;15.70;;;9.50;94.60;;;;;;5030482;28;21005;-56
2021/11/12 14:53:20;;;;;;;24.00;16.97;;;8.70;99.70;;;;;;5048197;28;20433;-58
2021/11/12 14:55:52;;;;;;;26.17;16.77;;;8.60;99.90;;;;;;5054259;28;20456;-57
2021/11/12 14:58:19;;;;;;;25.70;17.90;;;8.30;99.90;;;;;;5039096;28;20433;-56
2021/11/12 15:00:46;;;;;;;29.67;18.80;;;8.10;99.90;;;;;;5031373;28;20441;-59
2021/11/12 15:03:11;;;;;;;28.30;16.70;;;7.90;99.90;;;;;;5029263;28;20461;-58
2021/11/12 15:05:40;;;;;;;27.07;16.93;;;7.70;99.90;;;;;;5032726;28;20761;-59
2021/11/12 15:08:19;;;;;;;30.20;17.83;;;7.50;99.90;;;;;;5036671;28;20225;-58
2021/11/12 15:10:45;;;;;;;29.50;18.80;;;7.30;99.90;;;;;;5030424;28;20429;-58
2021/11/12 15:13:11;;;;;;;32.80;19.50;;;7.10;99.90;;;;;;5029123;28;20426;-59
2021/11/12 15:15:37;;;;;;;32.67;19.40;;;7.00;99.90;;;;;;5029937;28;20433;-58
2021/11/12 15:18:06;;;;;;;29.50;17.53;;;6.80;99.90;;;;;;5037181;28;20182;-58
2021/11/12 15:20:34;;;;;;;28.77;16.73;;;6.70;99.90;;;;;;5048541;28;20236;-59
2021/11/12 15:31:07;;;;;;;32.70;18.20;;;6.30;99.90;;;;;;5049028;28;20179;-58
2021/11/12 15:33:33;;;;;;;33.83;19.25;;;6.20;99.90;;;;;;5048133;28;20264;-59
2021/11/12 15:36:03;;;;;;;34.20;18.87;;;6.10;99.90;;;;;;5048127;28;20186;-59
2021/11/12 15:38:44;;;;;;;37.00;19.08;;;6.10;99.90;;;;;;5049148;28;20720;-54
2021/11/12 15:46:14;;;;;;;36.23;20.77;;;5.90;99.90;;;;;;5038130;28;20609;-57
2021/11/12 15:48:41;;;;;;;39.50;21.40;;;5.90;99.90;;;;;;5037742;28;20672;-57
2021/11/12 15:56:23;;;;;;;43.05;21.98;;;5.70;99.90;;;;;;5057273;28;20247;-58
2021/11/12 16:07:10;;;;;;;35.08;22.10;;;5.60;99.90;;;;;;5035764;28;20190;-57
2021/11/12 16:09:43;;;;;;;37.78;22.17;;;5.60;99.90;;;;;;5028500;28;20175;-58
2021/11/12 16:25:25;;;;;;;45.13;24.35;;;5.50;99.90;;;;;;5039232;28;20451;-57
2021/11/12 16:27:54;;;;;;;41.53;23.35;;;5.50;99.90;;;;;;5033465;28;20603;-59
2021/11/12 16:30:23;;;;;;;42.70;22.55;;;5.50;99.90;;;;;;5043108;28;20186;-59
2021/11/12 16:32:51;;;;;;;47.15;28.63;;;5.40;99.90;;;;;;5028126;28;20210;-58
2021/11/12 16:35:21;;;;;;;45.03;25.33;;;5.40;99.90;;;;;;5024704;28;20218;-59
2021/11/12 16:37:49;;;;;;;40.40;22.42;;;5.40;99.90;;;;;;5023248;28;20185;-56
2021/11/12 16:53:07;;;;;;;47.75;24.75;;;5.40;99.90;;;;;;5044309;28;20272;-56
2021/11/12 16:55:51;;;;;;;44.83;25.52;;;5.30;99.90;;;;;;5047069;28;20170;-58
2021/11/12 16:58:26;;;;;;;47.13;26.23;;;5.30;99.90;;;;;;5038252;28;20194;-57
2021/11/12 17:06:29;;;;;;;44.45;24.08;;;5.30;99.90;;;;;;5049638;28;20192;-57
2021/11/12 17:44:48;;;;;;;47.93;26.33;;;5.20;99.90;;;;;;5049208;28;20252;-58
2021/11/12 18:13:06;;;;;;;50.10;26.73;;;5.10;99.90;;;;;;5045590;28;20248;-58
2021/11/12 21:47:11;;;;;;;47.10;25.02;;;5.00;99.90;;;;;;5050618;28;20265;-59
2021/11/12 21:49:37;;;;;;;48.97;26.10;;;5.00;99.90;;;;;;5043240;28;20193;-54
2021/11/12 21:52:04;;;;;;;48.37;25.20;;;5.00;99.90;;;;;;5047947;28;20256;-60
2021/11/12 21:54:30;;;;;;;44.72;24.73;;;5.00;99.90;;;;;;5035214;28;20274;-59
2021/11/12 21:56:59;;;;;;;46.65;23.95;;;5.00;99.90;;;;;;5039685;28;20203;-48
2021/11/12 21:59:25;;;;;;;41.40;23.65;;;5.10;99.90;;;;;;5044711;28;20789;-57
2021/11/12 22:01:51;;;;;;;43.78;23.10;;;5.00;99.90;;;;;;5048363;28;20206;-59
2021/11/12 22:04:18;;;;;;;40.03;23.17;;;5.10;99.90;;;;;;5045230;28;20210;-57
2021/11/12 22:06:43;;;;;;;44.55;24.33;;;5.10;99.90;;;;;;5044005;28;20182;-59
2021/11/12 22:09:09;;;;;;;42.30;22.93;;;5.10;99.90;;;;;;5048109;28;20229;-55
2021/11/12 22:11:34;;;;;;;45.80;24.50;;;5.10;99.90;;;;;;5042323;28;20186;-57
2021/11/12 22:14:01;;;;;;;40.90;23.80;;;5.10;99.90;;;;;;5050096;28;20194;-57
2021/11/12 22:16:27;;;;;;;42.25;22.50;;;5.10;99.90;;;;;;5041895;28;20179;-56
2021/11/12 22:18:52;;;;;;;39.90;24.17;;;5.10;99.90;;;;;;5044333;28;20807;-56
2021/11/12 22:21:20;;;;;;;42.17;23.37;;;5.10;99.90;;;;;;5050662;28;20906;-52
2021/11/12 22:23:46;;;;;;;42.05;23.00;;;5.10;99.90;;;;;;5046593;28;20309;-57
2021/11/12 22:26:13;;;;;;;44.47;23.40;;;5.20;99.90;;;;;;5042983;28;20257;-57
2021/11/12 22:28:39;;;;;;;39.47;22.80;;;5.10;99.90;;;;;;5050117;28;20424;-54
2021/11/12 22:31:04;;;;;;;42.53;23.17;;;5.20;99.90;;;;;;5043680;28;20228;-57
2021/11/12 22:33:31;;;;;;;43.00;22.43;;;5.20;99.90;;;;;;5049649;28;20187;-59
2021/11/12 22:35:57;;;;;;;38.42;22.92;;;5.20;99.90;;;;;;5041165;28;20283;-56
2021/11/12 22:38:25;;;;;;;39.60;23.50;;;5.30;99.90;;;;;;5050662;28;20278;-50
2021/11/12 22:40:52;;;;;;;43.03;24.35;;;5.20;99.90;;;;;;5045716;28;20854;-57
2021/11/12 22:43:17;;;;;;;36.85;21.67;;;5.20;99.90;;;;;;5051442;28;20285;-58
2021/11/12 22:45:44;;;;;;;41.70;23.50;;;5.20;99.90;;;;;;5045161;28;20266;-58
2021/11/12 22:48:10;;;;;;;42.95;25.05;;;5.20;99.90;;;;;;5040020;28;20191;-59
2021/11/12 22:50:38;;;;;;;39.28;23.40;;;5.20;99.90;;;;;;5036987;28;20706;-60
2021/11/12 22:53:05;;;;;;;39.70;23.95;;;5.20;99.90;;;;;;5039450;28;20187;-57
2021/11/12 22:55:31;;;;;;;43.08;25.05;;;5.20;99.90;;;;;;5049003;28;20197;-59
2021/11/12 22:57:57;;;;;;;37.63;23.73;;;5.20;99.90;;;;;;5046335;28;20247;-59
2021/11/12 23:00:25;;;;;;;39.57;21.80;;;5.30;99.90;;;;;;5050037;28;20421;-60
2021/11/12 23:02:52;;;;;;;40.08;24.63;;;5.30;99.90;;;;;;5042804;28;20469;-57
2021/11/12 23:05:18;;;;;;;43.63;24.48;;;5.20;99.90;;;;;;5047939;28;20257;-59